sensor_id;sensor_type;location;lat;lon;timestamp;P1;durP1;ratioP1;P2;durP2;ratioP2
20251;SDS011;10284;58.364;15.550;2022-10-30T00:00:47;17.42;;;3.55;;
20251;SDS011;10284;58.364;15.550;2022-10-30T00:03:13;14.93;;;2.75;;
20251;SDS011;10284;58.364;15.550;2022-10-30T00:05:49;21.17;;;3.58;;
20251;SDS011;10284;58.364;15.550;2022-10-30T00:08:16;16.52;;;3.33;;
20251;SDS011;10284;58.364;15.550;2022-10-30T00:10:43;18.83;;;3.47;;
20251;SDS011;10284;58.364;15.550;2022-10-30T00:13:08;15.68;;;3.65;;
20251;SDS011;10284;58.364;15.550;2022-10-30T00:15:34;18.10;;;3.17;;
20251;SDS011;10284;58.364;15.550;2022-10-30T00:17:59;14.30;;;2.85;;
20251;SDS011;10284;58.364;15.550;2022-10-30T00:20:25;18.60;;;3.30;;
20251;SDS011;10284;58.364;15.550;2022-10-30T00:22:50;20.92;;;3.03;;
20251;SDS011;10284;58.364;15.550;2022-10-30T00:25:16;20.92;;;3.28;;
20251;SDS011;10284;58.364;15.550;2022-10-30T00:27:41;16.40;;;2.95;;
20251;SDS011;10284;58.364;15.550;2022-10-30T00:30:07;22.90;;;3.75;;
20251;SDS011;10284;58.364;15.550;2022-10-30T00:32:33;16.48;;;3.40;;
20251;SDS011;10284;58.364;15.550;2022-10-30T00:34:58;15.85;;;3.13;;
20251;SDS011;10284;58.364;15.550;2022-10-30T00:37:24;18.92;;;3.70;;
20251;SDS011;10284;58.364;15.550;2022-10-30T00:39:49;20.65;;;3.78;;
20251;SDS011;10284;58.364;15.550;2022-10-30T00:42:15;24.30;;;4.65;;
20251;SDS011;10284;58.364;15.550;2022-10-30T00:49:58;19.55;;;4.25;;
20251;SDS011;10284;58.364;15.550;2022-10-30T00:52:35;22.58;;;3.55;;
20251;SDS011;10284;58.364;15.550;2022-10-30T00:55:09;19.52;;;3.42;;
20251;SDS011;10284;58.364;15.550;2022-10-30T00:57:36;25.65;;;3.97;;
20251;SDS011;10284;58.364;15.550;2022-10-30T01:00:03;20.17;;;3.30;;
20251;SDS011;10284;58.364;15.550;2022-10-30T01:02:30;14.73;;;3.40;;
20251;SDS011;10284;58.364;15.550;2022-10-30T01:04:55;19.02;;;3.17;;
20251;SDS011;10284;58.364;15.550;2022-10-30T01:07:21;17.17;;;3.00;;
20251;SDS011;10284;58.364;15.550;2022-10-30T01:09:46;18.98;;;2.65;;
20251;SDS011;10284;58.364;15.550;2022-10-30T01:12:12;15.02;;;2.10;;
20251;SDS011;10284;58.364;15.550;2022-10-30T01:14:39;13.70;;;2.85;;
20251;SDS011;10284;58.364;15.550;2022-10-30T01:25:41;9.60;;;2.70;;
20251;SDS011;10284;58.364;15.550;2022-10-30T01:38:34;11.70;;;2.83;;
20251;SDS011;10284;58.364;15.550;2022-10-30T01:41:04;5.72;;;2.15;;
20251;SDS011;10284;58.364;15.550;2022-10-30T01:43:30;10.23;;;2.38;;
20251;SDS011;10284;58.364;15.550;2022-10-30T01:57:12;17.15;;;2.60;;
20251;SDS011;10284;58.364;15.550;2022-10-30T01:59:41;12.15;;;2.83;;
20251;SDS011;10284;58.364;15.550;2022-10-30T02:02:14;15.50;;;2.78;;
20251;SDS011;10284;58.364;15.550;2022-10-30T02:04:41;14.55;;;2.90;;
20251;SDS011;10284;58.364;15.550;2022-10-30T02:07:06;14.43;;;3.10;;
20251;SDS011;10284;58.364;15.550;2022-10-30T02:09:32;15.70;;;3.25;;
20251;SDS011;10284;58.364;15.550;2022-10-30T02:11:58;15.48;;;3.50;;
20251;SDS011;10284;58.364;15.550;2022-10-30T02:14:25;14.45;;;3.00;;
20251;SDS011;10284;58.364;15.550;2022-10-30T02:16:55;23.70;;;3.60;;
20251;SDS011;10284;58.364;15.550;2022-10-30T02:19:21;25.10;;;4.40;;
20251;SDS011;10284;58.364;15.550;2022-10-30T02:21:47;18.63;;;3.70;;
20251;SDS011;10284;58.364;15.550;2022-10-30T02:24:13;25.02;;;3.75;;
20251;SDS011;10284;58.364;15.550;2022-10-30T02:26:38;27.63;;;4.57;;
20251;SDS011;10284;58.364;15.550;2022-10-30T02:29:04;27.35;;;4.10;;
20251;SDS011;10284;58.364;15.550;2022-10-30T02:31:29;27.38;;;4.53;;
20251;SDS011;10284;58.364;15.550;2022-10-30T02:33:54;28.88;;;4.97;;
20251;SDS011;10284;58.364;15.550;2022-10-30T02:36:20;18.10;;;4.00;;
20251;SDS011;10284;58.364;15.550;2022-10-30T02:38:45;25.50;;;4.13;;
20251;SDS011;10284;58.364;15.550;2022-10-30T02:41:11;20.52;;;4.72;;
20251;SDS011;10284;58.364;15.550;2022-10-30T02:43:36;22.55;;;4.93;;
20251;SDS011;10284;58.364;15.550;2022-10-30T02:46:02;20.13;;;3.88;;
20251;SDS011;10284;58.364;15.550;2022-10-30T02:48:28;25.88;;;4.72;;
20251;SDS011;10284;58.364;15.550;2022-10-30T02:50:57;16.75;;;3.60;;
20251;SDS011;10284;58.364;15.550;2022-10-30T02:53:24;25.75;;;4.18;;
20251;SDS011;10284;58.364;15.550;2022-10-30T02:55:49;25.20;;;3.95;;
20251;SDS011;10284;58.364;15.550;2022-10-30T02:58:14;20.83;;;3.90;;
20251;SDS011;10284;58.364;15.550;2022-10-30T03:00:40;22.33;;;3.63;;
20251;SDS011;10284;58.364;15.550;2022-10-30T03:03:05;23.05;;;4.35;;
20251;SDS011;10284;58.364;15.550;2022-10-30T03:05:31;21.95;;;3.50;;
20251;SDS011;10284;58.364;15.550;2022-10-30T03:07:56;16.45;;;3.70;;
20251;SDS011;10284;58.364;15.550;2022-10-30T03:10:21;14.95;;;3.78;;
20251;SDS011;10284;58.364;15.550;2022-10-30T03:12:47;21.30;;;4.72;;
20251;SDS011;10284;58.364;15.550;2022-10-30T03:15:12;24.55;;;3.78;;
20251;SDS011;10284;58.364;15.550;2022-10-30T03:17:38;18.33;;;3.40;;
20251;SDS011;10284;58.364;15.550;2022-10-30T03:20:03;15.90;;;3.60;;
20251;SDS011;10284;58.364;15.550;2022-10-30T03:22:29;18.70;;;3.63;;
20251;SDS011;10284;58.364;15.550;2022-10-30T03:24:54;23.30;;;4.97;;
20251;SDS011;10284;58.364;15.550;2022-10-30T03:27:20;25.88;;;3.90;;
20251;SDS011;10284;58.364;15.550;2022-10-30T03:29:45;16.95;;;3.90;;
20251;SDS011;10284;58.364;15.550;2022-10-30T03:32:11;23.15;;;3.97;;
20251;SDS011;10284;58.364;15.550;2022-10-30T03:34:37;22.08;;;4.35;;
20251;SDS011;10284;58.364;15.550;2022-10-30T03:37:02;21.80;;;4.35;;
20251;SDS011;10284;58.364;15.550;2022-10-30T03:39:28;30.98;;;4.47;;
20251;SDS011;10284;58.364;15.550;2022-10-30T03:41:54;20.85;;;3.85;;
20251;SDS011;10284;58.364;15.550;2022-10-30T03:44:19;19.15;;;3.47;;
20251;SDS011;10284;58.364;15.550;2022-10-30T03:46:45;21.92;;;3.70;;
20251;SDS011;10284;58.364;15.550;2022-10-30T03:49:10;21.92;;;3.60;;
20251;SDS011;10284;58.364;15.550;2022-10-30T03:51:36;22.27;;;3.55;;
20251;SDS011;10284;58.364;15.550;2022-10-30T03:54:01;18.60;;;3.65;;
20251;SDS011;10284;58.364;15.550;2022-10-30T03:56:26;18.88;;;3.55;;
20251;SDS011;10284;58.364;15.550;2022-10-30T03:58:52;23.58;;;3.90;;
20251;SDS011;10284;58.364;15.550;2022-10-30T04:01:17;20.30;;;3.58;;
20251;SDS011;10284;58.364;15.550;2022-10-30T04:03:43;19.85;;;3.33;;
20251;SDS011;10284;58.364;15.550;2022-10-30T04:06:08;24.77;;;3.85;;
20251;SDS011;10284;58.364;15.550;2022-10-30T04:08:34;23.02;;;4.68;;
20251;SDS011;10284;58.364;15.550;2022-10-30T04:10:59;17.67;;;3.90;;
20251;SDS011;10284;58.364;15.550;2022-10-30T04:13:24;23.88;;;3.60;;
20251;SDS011;10284;58.364;15.550;2022-10-30T04:15:50;21.48;;;3.63;;
20251;SDS011;10284;58.364;15.550;2022-10-30T04:18:16;19.52;;;4.13;;
20251;SDS011;10284;58.364;15.550;2022-10-30T04:20:42;19.70;;;3.92;;
20251;SDS011;10284;58.364;15.550;2022-10-30T04:23:09;20.10;;;3.47;;
20251;SDS011;10284;58.364;15.550;2022-10-30T04:25:37;26.25;;;3.70;;
20251;SDS011;10284;58.364;15.550;2022-10-30T04:28:03;20.80;;;3.47;;
20251;SDS011;10284;58.364;15.550;2022-10-30T04:30:29;24.00;;;3.50;;
20251;SDS011;10284;58.364;15.550;2022-10-30T04:32:59;23.20;;;4.00;;
20251;SDS011;10284;58.364;15.550;2022-10-30T04:35:26;18.88;;;3.05;;
20251;SDS011;10284;58.364;15.550;2022-10-30T04:37:53;26.17;;;3.60;;
20251;SDS011;10284;58.364;15.550;2022-10-30T04:40:20;20.15;;;3.45;;
20251;SDS011;10284;58.364;15.550;2022-10-30T04:42:46;21.25;;;4.22;;
20251;SDS011;10284;58.364;15.550;2022-10-30T04:45:12;21.20;;;3.92;;
20251;SDS011;10284;58.364;15.550;2022-10-30T04:47:37;22.42;;;3.35;;
20251;SDS011;10284;58.364;15.550;2022-10-30T04:50:03;20.15;;;4.00;;
20251;SDS011;10284;58.364;15.550;2022-10-30T04:52:29;20.33;;;3.40;;
20251;SDS011;10284;58.364;15.550;2022-10-30T04:54:54;18.85;;;3.20;;
20251;SDS011;10284;58.364;15.550;2022-10-30T04:57:19;19.45;;;3.05;;
20251;SDS011;10284;58.364;15.550;2022-10-30T04:59:45;16.30;;;3.10;;
20251;SDS011;10284;58.364;15.550;2022-10-30T05:02:10;18.55;;;3.58;;
20251;SDS011;10284;58.364;15.550;2022-10-30T05:04:35;20.52;;;3.45;;
20251;SDS011;10284;58.364;15.550;2022-10-30T05:07:01;23.80;;;4.05;;
20251;SDS011;10284;58.364;15.550;2022-10-30T05:09:27;15.05;;;3.25;;
20251;SDS011;10284;58.364;15.550;2022-10-30T05:11:53;21.55;;;3.33;;
20251;SDS011;10284;58.364;15.550;2022-10-30T05:14:19;17.52;;;2.97;;
20251;SDS011;10284;58.364;15.550;2022-10-30T05:16:44;12.15;;;3.10;;
20251;SDS011;10284;58.364;15.550;2022-10-30T05:19:09;16.13;;;2.97;;
20251;SDS011;10284;58.364;15.550;2022-10-30T05:21:35;14.10;;;3.03;;
20251;SDS011;10284;58.364;15.550;2022-10-30T05:24:00;19.27;;;3.58;;
20251;SDS011;10284;58.364;15.550;2022-10-30T05:26:26;14.85;;;3.72;;
20251;SDS011;10284;58.364;15.550;2022-10-30T05:28:51;18.88;;;3.25;;
20251;SDS011;10284;58.364;15.550;2022-10-30T05:31:17;21.38;;;3.67;;
20251;SDS011;10284;58.364;15.550;2022-10-30T05:33:42;18.15;;;4.18;;
20251;SDS011;10284;58.364;15.550;2022-10-30T05:36:08;16.27;;;3.08;;
20251;SDS011;10284;58.364;15.550;2022-10-30T05:38:33;15.90;;;2.92;;
20251;SDS011;10284;58.364;15.550;2022-10-30T05:40:59;25.02;;;3.25;;
20251;SDS011;10284;58.364;15.550;2022-10-30T05:43:24;21.92;;;3.50;;
20251;SDS011;10284;58.364;15.550;2022-10-30T05:45:49;22.70;;;4.22;;
20251;SDS011;10284;58.364;15.550;2022-10-30T05:48:15;20.67;;;3.60;;
20251;SDS011;10284;58.364;15.550;2022-10-30T05:50:40;13.20;;;3.13;;
20251;SDS011;10284;58.364;15.550;2022-10-30T05:53:06;13.93;;;2.58;;
20251;SDS011;10284;58.364;15.550;2022-10-30T05:55:31;19.90;;;3.55;;
20251;SDS011;10284;58.364;15.550;2022-10-30T05:58:02;18.40;;;3.30;;
20251;SDS011;10284;58.364;15.550;2022-10-30T06:00:29;16.73;;;3.63;;
20251;SDS011;10284;58.364;15.550;2022-10-30T06:03:14;25.90;;;3.28;;
20251;SDS011;10284;58.364;15.550;2022-10-30T06:05:39;25.77;;;3.53;;
20251;SDS011;10284;58.364;15.550;2022-10-30T06:08:07;25.42;;;4.20;;
20251;SDS011;10284;58.364;15.550;2022-10-30T06:10:33;25.17;;;3.85;;
20251;SDS011;10284;58.364;15.550;2022-10-30T06:12:59;13.98;;;3.15;;
20251;SDS011;10284;58.364;15.550;2022-10-30T06:15:26;15.63;;;3.03;;
20251;SDS011;10284;58.364;15.550;2022-10-30T06:17:52;20.92;;;3.53;;
20251;SDS011;10284;58.364;15.550;2022-10-30T06:20:19;20.67;;;3.45;;
20251;SDS011;10284;58.364;15.550;2022-10-30T06:23:19;20.02;;;3.45;;
20251;SDS011;10284;58.364;15.550;2022-10-30T06:25:37;16.27;;;3.17;;
20251;SDS011;10284;58.364;15.550;2022-10-30T06:28:03;13.93;;;3.58;;
20251;SDS011;10284;58.364;15.550;2022-10-30T06:30:28;15.85;;;3.40;;
20251;SDS011;10284;58.364;15.550;2022-10-30T06:32:57;16.15;;;4.00;;
20251;SDS011;10284;58.364;15.550;2022-10-30T06:35:23;14.98;;;3.60;;
20251;SDS011;10284;58.364;15.550;2022-10-30T06:37:49;19.63;;;3.60;;
20251;SDS011;10284;58.364;15.550;2022-10-30T06:40:15;14.27;;;3.58;;
20251;SDS011;10284;58.364;15.550;2022-10-30T06:42:50;20.48;;;3.85;;
20251;SDS011;10284;58.364;15.550;2022-10-30T06:45:17;16.98;;;3.50;;
20251;SDS011;10284;58.364;15.550;2022-10-30T06:47:44;19.58;;;4.28;;
20251;SDS011;10284;58.364;15.550;2022-10-30T06:50:11;20.30;;;3.75;;
20251;SDS011;10284;58.364;15.550;2022-10-30T06:52:38;16.25;;;2.95;;
20251;SDS011;10284;58.364;15.550;2022-10-30T06:55:04;13.65;;;2.95;;
20251;SDS011;10284;58.364;15.550;2022-10-30T06:57:30;22.73;;;3.22;;
20251;SDS011;10284;58.364;15.550;2022-10-30T06:59:56;16.88;;;3.13;;
20251;SDS011;10284;58.364;15.550;2022-10-30T07:02:21;18.58;;;3.72;;
20251;SDS011;10284;58.364;15.550;2022-10-30T07:04:47;20.02;;;3.58;;
20251;SDS011;10284;58.364;15.550;2022-10-30T07:07:12;17.45;;;3.20;;
20251;SDS011;10284;58.364;15.550;2022-10-30T07:09:38;20.92;;;3.53;;
20251;SDS011;10284;58.364;15.550;2022-10-30T07:12:04;16.17;;;3.70;;
20251;SDS011;10284;58.364;15.550;2022-10-30T07:14:29;19.58;;;3.38;;
20251;SDS011;10284;58.364;15.550;2022-10-30T07:16:55;14.88;;;3.30;;
20251;SDS011;10284;58.364;15.550;2022-10-30T07:19:20;15.82;;;3.55;;
20251;SDS011;10284;58.364;15.550;2022-10-30T07:21:46;15.85;;;3.92;;
20251;SDS011;10284;58.364;15.550;2022-10-30T07:24:12;18.30;;;3.53;;
20251;SDS011;10284;58.364;15.550;2022-10-30T07:26:37;17.80;;;3.65;;
20251;SDS011;10284;58.364;15.550;2022-10-30T07:29:03;20.00;;;3.78;;
20251;SDS011;10284;58.364;15.550;2022-10-30T07:31:29;19.55;;;3.58;;
20251;SDS011;10284;58.364;15.550;2022-10-30T07:33:55;16.42;;;3.75;;
20251;SDS011;10284;58.364;15.550;2022-10-30T07:36:20;15.20;;;3.15;;
20251;SDS011;10284;58.364;15.550;2022-10-30T07:38:52;18.67;;;3.60;;
20251;SDS011;10284;58.364;15.550;2022-10-30T07:41:17;11.85;;;3.08;;
20251;SDS011;10284;58.364;15.550;2022-10-30T07:43:43;15.93;;;3.13;;
20251;SDS011;10284;58.364;15.550;2022-10-30T07:46:09;16.48;;;3.45;;
20251;SDS011;10284;58.364;15.550;2022-10-30T07:48:34;15.85;;;3.25;;
20251;SDS011;10284;58.364;15.550;2022-10-30T07:51:00;17.23;;;3.10;;
20251;SDS011;10284;58.364;15.550;2022-10-30T07:53:25;12.23;;;2.55;;
20251;SDS011;10284;58.364;15.550;2022-10-30T07:55:52;19.70;;;3.25;;
20251;SDS011;10284;58.364;15.550;2022-10-30T07:58:17;12.50;;;2.88;;
20251;SDS011;10284;58.364;15.550;2022-10-30T08:00:43;14.82;;;3.00;;
20251;SDS011;10284;58.364;15.550;2022-10-30T08:03:08;11.88;;;2.30;;
20251;SDS011;10284;58.364;15.550;2022-10-30T08:05:35;17.70;;;3.22;;
20251;SDS011;10284;58.364;15.550;2022-10-30T08:08:00;13.60;;;2.95;;
20251;SDS011;10284;58.364;15.550;2022-10-30T08:10:26;12.63;;;2.50;;
20251;SDS011;10284;58.364;15.550;2022-10-30T08:12:51;13.85;;;2.50;;
20251;SDS011;10284;58.364;15.550;2022-10-30T08:15:17;10.60;;;2.75;;
20251;SDS011;10284;58.364;15.550;2022-10-30T08:17:43;12.13;;;2.53;;
20251;SDS011;10284;58.364;15.550;2022-10-30T08:20:10;12.43;;;2.65;;
20251;SDS011;10284;58.364;15.550;2022-10-30T08:22:46;21.60;;;2.83;;
20251;SDS011;10284;58.364;15.550;2022-10-30T08:25:16;11.02;;;2.40;;
20251;SDS011;10284;58.364;15.550;2022-10-30T08:30:43;11.57;;;2.28;;
20251;SDS011;10284;58.364;15.550;2022-10-30T08:33:11;14.60;;;2.70;;
20251;SDS011;10284;58.364;15.550;2022-10-30T08:35:49;11.52;;;2.25;;
20251;SDS011;10284;58.364;15.550;2022-10-30T08:40:41;9.00;;;2.00;;
20251;SDS011;10284;58.364;15.550;2022-10-30T08:43:07;12.13;;;2.70;;
20251;SDS011;10284;58.364;15.550;2022-10-30T08:45:32;13.18;;;2.17;;
20251;SDS011;10284;58.364;15.550;2022-10-30T08:48:02;14.60;;;2.60;;
20251;SDS011;10284;58.364;15.550;2022-10-30T08:50:28;11.63;;;2.30;;
20251;SDS011;10284;58.364;15.550;2022-10-30T08:52:55;11.30;;;2.35;;
20251;SDS011;10284;58.364;15.550;2022-10-30T08:55:20;14.07;;;2.38;;
20251;SDS011;10284;58.364;15.550;2022-10-30T08:57:46;16.85;;;2.95;;
20251;SDS011;10284;58.364;15.550;2022-10-30T09:00:11;15.40;;;2.40;;
20251;SDS011;10284;58.364;15.550;2022-10-30T09:02:37;9.95;;;2.33;;
20251;SDS011;10284;58.364;15.550;2022-10-30T09:05:05;13.35;;;2.22;;
20251;SDS011;10284;58.364;15.550;2022-10-30T09:07:31;7.45;;;1.90;;
20251;SDS011;10284;58.364;15.550;2022-10-30T09:09:57;8.98;;;2.10;;
20251;SDS011;10284;58.364;15.550;2022-10-30T09:12:22;13.90;;;2.22;;
20251;SDS011;10284;58.364;15.550;2022-10-30T09:14:48;10.32;;;2.20;;
20251;SDS011;10284;58.364;15.550;2022-10-30T09:17:13;10.80;;;2.13;;
20251;SDS011;10284;58.364;15.550;2022-10-30T09:19:39;8.82;;;2.00;;
20251;SDS011;10284;58.364;15.550;2022-10-30T09:22:04;10.13;;;2.17;;
20251;SDS011;10284;58.364;15.550;2022-10-30T09:24:29;9.55;;;2.10;;
20251;SDS011;10284;58.364;15.550;2022-10-30T09:26:55;6.95;;;1.88;;
20251;SDS011;10284;58.364;15.550;2022-10-30T09:29:20;10.43;;;1.75;;
20251;SDS011;10284;58.364;15.550;2022-10-30T09:31:46;6.20;;;1.83;;
20251;SDS011;10284;58.364;15.550;2022-10-30T09:34:12;10.15;;;2.05;;
20251;SDS011;10284;58.364;15.550;2022-10-30T09:36:37;10.23;;;2.38;;
20251;SDS011;10284;58.364;15.550;2022-10-30T09:39:02;10.88;;;1.88;;
20251;SDS011;10284;58.364;15.550;2022-10-30T09:44:22;8.90;;;2.45;;
20251;SDS011;10284;58.364;15.550;2022-10-30T09:47:02;9.32;;;2.00;;
20251;SDS011;10284;58.364;15.550;2022-10-30T09:55:26;10.77;;;2.47;;
20251;SDS011;10284;58.364;15.550;2022-10-30T09:57:59;11.55;;;2.60;;
20251;SDS011;10284;58.364;15.550;2022-10-30T10:00:30;12.52;;;1.95;;
20251;SDS011;10284;58.364;15.550;2022-10-30T10:05:55;7.35;;;2.00;;
20251;SDS011;10284;58.364;15.550;2022-10-30T10:11:02;9.10;;;1.90;;
20251;SDS011;10284;58.364;15.550;2022-10-30T10:13:38;9.18;;;1.98;;
20251;SDS011;10284;58.364;15.550;2022-10-30T10:16:13;11.63;;;2.28;;
20251;SDS011;10284;58.364;15.550;2022-10-30T10:18:50;6.80;;;1.85;;
20251;SDS011;10284;58.364;15.550;2022-10-30T10:21:28;9.63;;;2.08;;
20251;SDS011;10284;58.364;15.550;2022-10-30T10:23:54;8.85;;;2.13;;
20251;SDS011;10284;58.364;15.550;2022-10-30T10:31:28;11.15;;;2.28;;
20251;SDS011;10284;58.364;15.550;2022-10-30T10:50:56;7.78;;;1.92;;
20251;SDS011;10284;58.364;15.550;2022-10-30T10:53:29;9.05;;;2.40;;
20251;SDS011;10284;58.364;15.550;2022-10-30T10:56:06;8.30;;;2.15;;
20251;SDS011;10284;58.364;15.550;2022-10-30T11:00:58;8.90;;;1.80;;
20251;SDS011;10284;58.364;15.550;2022-10-30T11:06:16;9.20;;;1.73;;
20251;SDS011;10284;58.364;15.550;2022-10-30T11:08:44;9.38;;;2.55;;
20251;SDS011;10284;58.364;15.550;2022-10-30T11:11:10;13.02;;;2.55;;
20251;SDS011;10284;58.364;15.550;2022-10-30T11:13:37;8.93;;;2.25;;
20251;SDS011;10284;58.364;15.550;2022-10-30T11:18:41;13.03;;;2.10;;
20251;SDS011;10284;58.364;15.550;2022-10-30T11:23:53;10.75;;;2.30;;
20251;SDS011;10284;58.364;15.550;2022-10-30T11:33:46;11.73;;;2.58;;
20251;SDS011;10284;58.364;15.550;2022-10-30T11:36:16;9.60;;;1.90;;
20251;SDS011;10284;58.364;15.550;2022-10-30T11:38:43;7.53;;;1.95;;
20251;SDS011;10284;58.364;15.550;2022-10-30T11:41:09;7.95;;;1.85;;
20251;SDS011;10284;58.364;15.550;2022-10-30T11:43:35;6.45;;;1.58;;
20251;SDS011;10284;58.364;15.550;2022-10-30T11:46:00;9.45;;;2.10;;
20251;SDS011;10284;58.364;15.550;2022-10-30T11:48:28;10.05;;;2.17;;
20251;SDS011;10284;58.364;15.550;2022-10-30T11:50:58;6.55;;;1.70;;
20251;SDS011;10284;58.364;15.550;2022-10-30T11:53:26;10.90;;;2.05;;
20251;SDS011;10284;58.364;15.550;2022-10-30T11:55:56;8.15;;;2.22;;
20251;SDS011;10284;58.364;15.550;2022-10-30T11:58:23;8.65;;;1.98;;
20251;SDS011;10284;58.364;15.550;2022-10-30T12:01:04;8.82;;;1.85;;
20251;SDS011;10284;58.364;15.550;2022-10-30T12:03:38;7.70;;;1.65;;
20251;SDS011;10284;58.364;15.550;2022-10-30T12:06:09;11.60;;;2.22;;
20251;SDS011;10284;58.364;15.550;2022-10-30T12:08:38;8.40;;;2.20;;
20251;SDS011;10284;58.364;15.550;2022-10-30T12:11:04;6.00;;;1.65;;
20251;SDS011;10284;58.364;15.550;2022-10-30T12:13:32;9.82;;;2.10;;
20251;SDS011;10284;58.364;15.550;2022-10-30T12:16:05;11.65;;;1.88;;
20251;SDS011;10284;58.364;15.550;2022-10-30T12:18:33;8.18;;;1.98;;
20251;SDS011;10284;58.364;15.550;2022-10-30T12:20:58;10.68;;;2.35;;
20251;SDS011;10284;58.364;15.550;2022-10-30T12:23:25;8.05;;;1.98;;
20251;SDS011;10284;58.364;15.550;2022-10-30T12:25:53;6.50;;;1.83;;
20251;SDS011;10284;58.364;15.550;2022-10-30T12:28:23;11.18;;;5.15;;
20251;SDS011;10284;58.364;15.550;2022-10-30T12:31:03;9.25;;;2.20;;
20251;SDS011;10284;58.364;15.550;2022-10-30T12:36:06;10.57;;;2.30;;
20251;SDS011;10284;58.364;15.550;2022-10-30T12:38:37;6.72;;;1.73;;
20251;SDS011;10284;58.364;15.550;2022-10-30T12:43:41;8.45;;;2.45;;
20251;SDS011;10284;58.364;15.550;2022-10-30T12:46:14;5.50;;;1.85;;
20251;SDS011;10284;58.364;15.550;2022-10-30T12:48:57;22.38;;;6.20;;
20251;SDS011;10284;58.364;15.550;2022-10-30T12:51:33;23.25;;;12.70;;
20251;SDS011;10284;58.364;15.550;2022-10-30T12:56:51;10.50;;;2.08;;
20251;SDS011;10284;58.364;15.550;2022-10-30T13:02:09;7.32;;;1.88;;
20251;SDS011;10284;58.364;15.550;2022-10-30T13:04:38;10.57;;;2.20;;
20251;SDS011;10284;58.364;15.550;2022-10-30T13:07:17;7.07;;;2.00;;
20251;SDS011;10284;58.364;15.550;2022-10-30T13:12:24;9.73;;;1.75;;
20251;SDS011;10284;58.364;15.550;2022-10-30T13:15:01;11.48;;;2.10;;
20251;SDS011;10284;58.364;15.550;2022-10-30T13:17:28;6.55;;;2.03;;
20251;SDS011;10284;58.364;15.550;2022-10-30T13:19:54;13.60;;;2.45;;
20251;SDS011;10284;58.364;15.550;2022-10-30T13:27:38;7.70;;;2.20;;
20251;SDS011;10284;58.364;15.550;2022-10-30T13:30:13;9.65;;;2.33;;
20251;SDS011;10284;58.364;15.550;2022-10-30T13:33:24;9.25;;;1.90;;
20251;SDS011;10284;58.364;15.550;2022-10-30T13:35:44;13.25;;;2.22;;
20251;SDS011;10284;58.364;15.550;2022-10-30T13:49:06;9.60;;;2.10;;
20251;SDS011;10284;58.364;15.550;2022-10-30T13:51:43;7.95;;;2.13;;
20251;SDS011;10284;58.364;15.550;2022-10-30T13:54:14;10.82;;;1.98;;
20251;SDS011;10284;58.364;15.550;2022-10-30T13:56:43;6.70;;;1.73;;
20251;SDS011;10284;58.364;15.550;2022-10-30T14:01:55;6.78;;;1.90;;
20251;SDS011;10284;58.364;15.550;2022-10-30T14:04:54;7.65;;;1.65;;
20251;SDS011;10284;58.364;15.550;2022-10-30T14:07:26;5.60;;;1.42;;
20251;SDS011;10284;58.364;15.550;2022-10-30T14:10:01;6.13;;;1.80;;
20251;SDS011;10284;58.364;15.550;2022-10-30T14:20:43;7.20;;;1.70;;
20251;SDS011;10284;58.364;15.550;2022-10-30T14:23:20;10.18;;;2.47;;
20251;SDS011;10284;58.364;15.550;2022-10-30T14:28:50;6.60;;;1.80;;
20251;SDS011;10284;58.364;15.550;2022-10-30T14:31:18;8.27;;;2.13;;
20251;SDS011;10284;58.364;15.550;2022-10-30T14:52:18;10.13;;;2.95;;
20251;SDS011;10284;58.364;15.550;2022-10-30T15:13:49;5.38;;;2.08;;
20251;SDS011;10284;58.364;15.550;2022-10-30T15:16:18;10.65;;;2.45;;
20251;SDS011;10284;58.364;15.550;2022-10-30T15:18:51;8.63;;;2.35;;
20251;SDS011;10284;58.364;15.550;2022-10-30T15:21:23;6.50;;;1.80;;
20251;SDS011;10284;58.364;15.550;2022-10-30T15:23:53;8.05;;;2.50;;
20251;SDS011;10284;58.364;15.550;2022-10-30T15:26:21;11.13;;;2.53;;
20251;SDS011;10284;58.364;15.550;2022-10-30T15:28:48;9.05;;;2.03;;
20251;SDS011;10284;58.364;15.550;2022-10-30T15:31:24;10.35;;;2.25;;
20251;SDS011;10284;58.364;15.550;2022-10-30T15:33:52;10.63;;;2.20;;
20251;SDS011;10284;58.364;15.550;2022-10-30T15:36:28;11.40;;;2.50;;
20251;SDS011;10284;58.364;15.550;2022-10-30T15:41:45;8.88;;;2.40;;
20251;SDS011;10284;58.364;15.550;2022-10-30T15:44:13;7.60;;;2.45;;
20251;SDS011;10284;58.364;15.550;2022-10-30T15:46:44;11.20;;;2.83;;
20251;SDS011;10284;58.364;15.550;2022-10-30T15:49:13;10.65;;;3.35;;
20251;SDS011;10284;58.364;15.550;2022-10-30T15:51:42;10.25;;;2.33;;
20251;SDS011;10284;58.364;15.550;2022-10-30T15:54:09;11.07;;;2.65;;
20251;SDS011;10284;58.364;15.550;2022-10-30T15:56:36;8.00;;;2.35;;
20251;SDS011;10284;58.364;15.550;2022-10-30T15:59:06;8.18;;;2.20;;
20251;SDS011;10284;58.364;15.550;2022-10-30T16:01:44;7.13;;;2.17;;
20251;SDS011;10284;58.364;15.550;2022-10-30T16:04:17;7.82;;;2.42;;
20251;SDS011;10284;58.364;15.550;2022-10-30T16:06:51;8.50;;;2.58;;
20251;SDS011;10284;58.364;15.550;2022-10-30T16:09:18;9.45;;;2.53;;
20251;SDS011;10284;58.364;15.550;2022-10-30T16:11:44;6.80;;;2.20;;
20251;SDS011;10284;58.364;15.550;2022-10-30T16:14:17;10.25;;;2.17;;
20251;SDS011;10284;58.364;15.550;2022-10-30T16:16:46;9.25;;;2.05;;
20251;SDS011;10284;58.364;15.550;2022-10-30T16:19:17;8.20;;;2.10;;
20251;SDS011;10284;58.364;15.550;2022-10-30T16:24:13;6.18;;;2.08;;
20251;SDS011;10284;58.364;15.550;2022-10-30T16:26:40;7.72;;;2.28;;
20251;SDS011;10284;58.364;15.550;2022-10-30T16:31:37;8.70;;;2.20;;
20251;SDS011;10284;58.364;15.550;2022-10-30T16:34:03;10.85;;;2.60;;
20251;SDS011;10284;58.364;15.550;2022-10-30T16:36:29;7.55;;;2.70;;
20251;SDS011;10284;58.364;15.550;2022-10-30T16:38:55;8.90;;;2.53;;
20251;SDS011;10284;58.364;15.550;2022-10-30T16:41:21;12.48;;;2.65;;
20251;SDS011;10284;58.364;15.550;2022-10-30T16:46:46;9.13;;;2.38;;
20251;SDS011;10284;58.364;15.550;2022-10-30T16:49:14;8.18;;;2.50;;
20251;SDS011;10284;58.364;15.550;2022-10-30T16:51:42;5.40;;;2.67;;
20251;SDS011;10284;58.364;15.550;2022-10-30T16:54:15;6.82;;;3.15;;
20251;SDS011;10284;58.364;15.550;2022-10-30T16:56:43;7.18;;;3.05;;
20251;SDS011;10284;58.364;15.550;2022-10-30T16:59:12;8.27;;;3.00;;
20251;SDS011;10284;58.364;15.550;2022-10-30T17:01:41;5.22;;;3.05;;
20251;SDS011;10284;58.364;15.550;2022-10-30T17:04:06;7.43;;;2.97;;
20251;SDS011;10284;58.364;15.550;2022-10-30T17:06:41;11.30;;;3.50;;
20251;SDS011;10284;58.364;15.550;2022-10-30T17:09:09;10.30;;;3.90;;
20251;SDS011;10284;58.364;15.550;2022-10-30T17:11:47;10.38;;;3.85;;
20251;SDS011;10284;58.364;15.550;2022-10-30T17:14:42;7.18;;;3.00;;
20251;SDS011;10284;58.364;15.550;2022-10-30T17:17:33;8.15;;;3.50;;
20251;SDS011;10284;58.364;15.550;2022-10-30T17:22:26;9.27;;;3.13;;
20251;SDS011;10284;58.364;15.550;2022-10-30T17:24:52;11.07;;;3.35;;
20251;SDS011;10284;58.364;15.550;2022-10-30T17:30:51;8.38;;;3.13;;
20251;SDS011;10284;58.364;15.550;2022-10-30T17:35:50;11.43;;;2.53;;
20251;SDS011;10284;58.364;15.550;2022-10-30T17:38:15;9.13;;;2.60;;
20251;SDS011;10284;58.364;15.550;2022-10-30T17:40:41;8.00;;;2.58;;
20251;SDS011;10284;58.364;15.550;2022-10-30T17:43:10;8.57;;;2.50;;
20251;SDS011;10284;58.364;15.550;2022-10-30T17:45:39;9.63;;;2.47;;